createdAt,value
2018-10-18T00:00:34.633Z,0
2018-10-18T00:01:15.033Z,0
2018-10-18T00:03:27.760Z,0
2018-10-18T00:04:08.070Z,0
2018-10-18T00:04:48.465Z,0
2018-10-18T00:05:29.128Z,0
2018-10-18T00:06:10.395Z,0
2018-10-18T00:06:52.250Z,0
2018-10-18T00:19:22.108Z,0
2018-10-18T00:20:02.658Z,0
2018-10-18T00:20:43.616Z,0
2018-10-18T00:21:23.602Z,0
2018-10-18T00:22:04.043Z,0
2018-10-18T00:22:44.472Z,0
2018-10-18T00:23:24.859Z,0
2018-10-18T00:24:05.412Z,0
2018-10-18T00:24:45.799Z,0
2018-10-18T00:25:26.200Z,0
2018-10-18T00:26:06.730Z,0
2018-10-18T00:26:47.058Z,0
2018-10-18T00:27:27.446Z,0
2018-10-18T00:28:07.925Z,0
2018-10-18T00:28:48.385Z,0
2018-10-18T00:29:28.768Z,0
2018-10-18T00:30:09.278Z,0
2018-10-18T00:30:49.575Z,0
2018-10-18T00:31:30.045Z,0
2018-10-18T00:32:10.552Z,0
2018-10-18T00:32:50.832Z,0
2018-10-18T00:33:31.598Z,0
2018-10-18T00:34:12.009Z,0
2018-10-18T00:34:52.433Z,0
2018-10-18T00:35:33.821Z,0
2018-10-18T00:36:14.360Z,0
2018-10-18T00:36:54.663Z,0
2018-10-18T00:37:35.042Z,0
2018-10-18T00:38:15.609Z,0
2018-10-18T00:38:55.816Z,0
2018-10-18T00:39:36.314Z,0
2018-10-18T00:40:16.721Z,0
2018-10-18T00:40:57.254Z,0
2018-10-18T00:41:37.674Z,0
2018-10-18T00:42:18.171Z,0
2018-10-18T00:42:58.499Z,0
2018-10-18T00:43:40.630Z,0
2018-10-18T00:44:20.905Z,0
2018-10-18T00:45:01.269Z,0
2018-10-18T00:45:41.721Z,0
2018-10-18T00:46:22.106Z,0
2018-10-18T00:47:04.034Z,0
2018-10-18T00:47:45.053Z,0
2018-10-18T00:48:25.111Z,0
2018-10-18T00:49:05.575Z,0
2018-10-18T00:49:45.898Z,0
2018-10-18T00:50:26.647Z,0
2018-10-18T00:51:06.943Z,0
2018-10-18T00:51:47.621Z,0
2018-10-18T00:52:28.241Z,0
2018-10-18T00:53:08.669Z,0
2018-10-18T00:53:49.083Z,0
2018-10-18T00:54:31.242Z,0
2018-10-18T00:55:13.339Z,0
2018-10-18T00:55:54.257Z,0
2018-10-18T00:56:34.728Z,0
2018-10-18T00:57:15.292Z,0
2018-10-18T00:57:56.508Z,0
2018-10-18T00:58:36.919Z,0
2018-10-18T00:59:17.358Z,0
2018-10-18T00:59:57.872Z,0
2018-10-18T01:00:38.274Z,0
2018-10-18T01:01:18.897Z,0
2018-10-18T01:02:00.015Z,0
2018-10-18T01:02:39.885Z,0
2018-10-18T01:03:20.254Z,0
2018-10-18T01:04:00.739Z,0
2018-10-18T01:04:41.058Z,0
2018-10-18T01:05:21.480Z,0
2018-10-18T01:06:02.196Z,0
2018-10-18T01:06:42.464Z,0
2018-10-18T01:07:22.895Z,0
2018-10-18T01:08:03.385Z,0
2018-10-18T01:08:44.135Z,0
2018-10-18T01:09:24.530Z,0
2018-10-18T01:10:05.104Z,0
2018-10-18T03:10:02.041Z,0
2018-10-18T03:10:43.078Z,0
2018-10-18T03:11:26.353Z,0
2018-10-18T03:12:06.832Z,0
2018-10-18T03:12:47.118Z,0
2018-10-18T03:13:27.559Z,0
2018-10-18T03:14:08.408Z,0
2018-10-18T03:14:48.817Z,0
2018-10-18T03:15:30.107Z,0
2018-10-18T03:16:10.798Z,0
2018-10-18T03:16:51.594Z,0
2018-10-18T03:17:32.042Z,0
2018-10-18T03:18:12.536Z,0
2018-10-18T03:18:52.921Z,0
2018-10-18T03:19:33.380Z,0
2018-10-18T03:20:13.978Z,0
2018-10-18T03:20:54.441Z,0
2018-10-18T03:21:34.906Z,0
2018-10-18T03:22:15.365Z,0
2018-10-18T03:22:55.755Z,0
2018-10-18T03:23:36.275Z,0
2018-10-18T03:24:18.099Z,0
2018-10-18T03:24:57.323Z,0
2018-10-18T03:25:37.679Z,0
2018-10-18T03:26:18.103Z,0
2018-10-18T03:26:58.974Z,0
2018-10-18T03:29:43.428Z,0
2018-10-18T03:30:23.600Z,0
2018-10-18T03:31:03.893Z,0
2018-10-18T03:31:44.158Z,0
2018-10-18T03:32:24.626Z,0
2018-10-18T03:33:04.978Z,0
2018-10-18T03:33:45.957Z,0
2018-10-18T03:34:26.384Z,0
2018-10-18T03:35:06.737Z,0
2018-10-18T03:35:47.155Z,0
2018-10-18T03:36:27.624Z,0
2018-10-18T03:37:08.525Z,0
2018-10-18T03:37:48.916Z,0
2018-10-18T03:38:29.902Z,0
2018-10-18T03:39:10.275Z,0
2018-10-18T03:39:50.719Z,0
2018-10-18T03:40:31.793Z,0
2018-10-18T03:41:12.762Z,0
2018-10-18T03:41:54.671Z,0
2018-10-18T03:42:34.616Z,0
2018-10-18T03:47:25.375Z,0
2018-10-18T03:48:05.877Z,0
2018-10-18T03:48:46.394Z,0
2018-10-18T03:49:56.256Z,0
2018-10-18T03:50:36.699Z,0
2018-10-18T03:51:17.120Z,0
2018-10-18T03:51:57.538Z,0
2018-10-18T03:52:38.024Z,0
2018-10-18T03:55:16.017Z,0
2018-10-18T03:55:54.041Z,0
2018-10-18T03:56:34.382Z,0
2018-10-18T03:57:14.755Z,0
2018-10-18T03:57:55.258Z,0
2018-10-18T03:58:35.640Z,0
2018-10-18T03:59:16.077Z,0
2018-10-18T03:59:56.514Z,0
2018-10-18T04:00:36.902Z,0
2018-10-18T04:01:17.370Z,0
2018-10-18T04:01:57.923Z,0
2018-10-18T04:02:38.288Z,0
2018-10-18T04:03:18.637Z,0
2018-10-18T04:03:59.144Z,0
2018-10-18T04:04:39.502Z,0
2018-10-18T04:05:19.875Z,0
2018-10-18T04:06:00.383Z,0
2018-10-18T04:06:40.746Z,0
2018-10-18T04:07:21.222Z,0
2018-10-18T04:08:01.573Z,0
2018-10-18T04:08:41.960Z,0
2018-10-18T04:09:22.426Z,0
2018-10-18T04:10:02.821Z,0
2018-10-18T04:10:43.277Z,0
2018-10-18T04:11:23.779Z,0
2018-10-18T04:12:04.297Z,0
2018-10-18T04:12:45.368Z,0
2018-10-18T04:13:25.522Z,0
2018-10-18T04:14:05.979Z,0
2018-10-18T04:14:46.257Z,0
2018-10-18T04:15:26.823Z,0
2018-10-18T04:16:07.334Z,0
2018-10-18T04:16:48.255Z,0
2018-10-18T04:17:28.762Z,0
2018-10-18T04:18:09.229Z,0
2018-10-18T04:18:49.545Z,0
2018-10-18T04:19:29.979Z,0
2018-10-18T04:20:10.471Z,0
2018-10-18T04:20:50.785Z,0
2018-10-18T04:21:31.262Z,0
2018-10-18T04:22:11.650Z,0
2018-10-18T04:22:51.997Z,0
2018-10-18T04:23:45.694Z,0
2018-10-18T04:24:30.213Z,0
2018-10-18T04:25:11.126Z,0
2018-10-18T04:25:51.491Z,0
2018-10-18T04:26:32.768Z,0
2018-10-18T04:27:13.276Z,0
2018-10-18T05:07:08.056Z,0
2018-10-18T05:07:55.125Z,0
2018-10-18T05:08:43.736Z,0
2018-10-18T05:09:26.096Z,0
2018-10-18T05:10:08.002Z,0
2018-10-18T05:10:48.096Z,0
2018-10-18T05:11:28.814Z,0
2018-10-18T05:12:09.000Z,0
2018-10-18T05:12:49.565Z,0
2018-10-18T05:13:31.035Z,0
2018-10-18T05:14:11.607Z,0
2018-10-18T05:14:52.108Z,0
2018-10-18T05:15:32.494Z,0
2018-10-18T05:16:13.407Z,0
2018-10-18T05:16:53.402Z,0
2018-10-18T05:17:34.043Z,0
2018-10-18T05:18:14.499Z,0
2018-10-18T05:18:58.668Z,0
2018-10-18T05:19:39.133Z,0
2018-10-18T05:20:20.296Z,0
2018-10-18T05:21:00.663Z,0
2018-10-18T05:21:41.067Z,0
2018-10-18T05:22:21.446Z,0
2018-10-18T05:23:04.943Z,0
2018-10-18T05:23:47.893Z,0
2018-10-18T05:24:28.286Z,0
2018-10-18T05:25:11.025Z,0
2018-10-18T05:25:49.823Z,0
2018-10-18T05:30:35.832Z,0
2018-10-18T05:31:28.556Z,0
2018-10-18T05:32:20.490Z,0
2018-10-18T05:33:13.105Z,0
2018-10-18T05:34:05.460Z,0
2018-10-18T05:34:57.403Z,0
2018-10-18T05:35:49.647Z,0
2018-10-18T05:36:42.069Z,0
2018-10-18T05:37:36.404Z,0
2018-10-18T05:38:30.817Z,0
2018-10-18T05:39:22.935Z,0
2018-10-18T05:40:31.892Z,0
2018-10-18T05:41:27.036Z,0
2018-10-18T05:42:26.840Z,0
2018-10-18T05:43:20.391Z,0
2018-10-18T05:44:12.807Z,0
2018-10-18T05:45:05.327Z,0
2018-10-18T05:45:58.078Z,0
2018-10-18T05:46:50.226Z,0
2018-10-18T05:47:43.007Z,0
2018-10-18T05:48:35.191Z,0
2018-10-18T05:49:27.002Z,0
2018-10-18T05:50:22.958Z,0
2018-10-18T05:52:56.981Z,0
2018-10-18T05:53:50.640Z,0
2018-10-18T05:54:44.751Z,0
2018-10-18T05:55:38.295Z,0
2018-10-18T05:56:31.678Z,0
2018-10-18T05:57:24.493Z,0
2018-10-18T05:58:20.855Z,0
2018-10-18T05:59:26.594Z,0
2018-10-18T06:00:28.922Z,0
2018-10-18T06:01:21.902Z,0
2018-10-18T06:02:21.196Z,0
2018-10-18T06:03:14.575Z,0
2018-10-18T06:04:07.100Z,0
2018-10-18T06:04:59.727Z,0
2018-10-18T06:05:52.807Z,0
2018-10-18T06:06:46.344Z,0
2018-10-18T06:07:39.864Z,0
2018-10-18T06:08:32.157Z,0
2018-10-18T06:09:24.524Z,0
2018-10-18T06:10:19.142Z,0
2018-10-18T06:11:11.010Z,0
2018-10-18T06:12:04.584Z,0
2018-10-18T06:15:26.181Z,0
2018-10-18T06:16:18.476Z,0
2018-10-18T06:17:14.781Z,0
2018-10-18T06:18:07.997Z,0
2018-10-18T06:19:01.168Z,0
2018-10-18T06:19:53.626Z,0
2018-10-18T06:20:48.545Z,0
2018-10-18T06:21:43.527Z,0
2018-10-18T06:22:36.421Z,0
2018-10-18T06:23:31.354Z,0
2018-10-18T06:24:24.721Z,5
2018-10-18T06:25:21.929Z,5
2018-10-18T06:26:14.020Z,5
2018-10-18T06:27:10.592Z,5
2018-10-18T06:28:03.658Z,5
2018-10-18T06:28:57.982Z,5
2018-10-18T06:29:51.745Z,5
2018-10-18T06:30:45.514Z,5
2018-10-18T06:31:38.856Z,5
2018-10-18T06:32:31.228Z,5
2018-10-18T06:33:23.221Z,5
2018-10-18T06:34:17.183Z,5
2018-10-18T06:35:18.476Z,10
2018-10-18T06:36:17.525Z,10
2018-10-18T06:37:10.277Z,10
2018-10-18T06:38:06.665Z,10
2018-10-18T06:39:05.121Z,10
2018-10-18T06:39:58.491Z,10
2018-10-18T06:40:52.728Z,10
2018-10-18T06:41:47.394Z,10
2018-10-18T06:42:40.621Z,15
2018-10-18T06:43:33.203Z,15
2018-10-18T06:44:28.283Z,15
2018-10-18T06:45:21.659Z,15
2018-10-18T06:46:20.958Z,15
2018-10-18T06:47:17.906Z,15
2018-10-18T06:48:11.311Z,15
2018-10-18T06:49:03.870Z,15
2018-10-18T06:50:01.798Z,15
2018-10-18T06:50:57.415Z,15
2018-10-18T06:51:49.625Z,15
2018-10-18T06:52:47.356Z,15
2018-10-18T06:53:44.917Z,10
2018-10-18T06:54:42.044Z,10
2018-10-18T06:55:35.344Z,10
2018-10-18T06:56:30.009Z,10
2018-10-18T06:57:25.082Z,10
2018-10-18T06:58:18.145Z,10
2018-10-18T06:59:10.551Z,10
2018-10-18T07:00:05.084Z,10
2018-10-18T07:00:59.575Z,10
2018-10-18T07:01:52.238Z,10
2018-10-18T07:02:45.917Z,10
2018-10-18T07:03:39.483Z,5
2018-10-18T07:04:32.147Z,5
2018-10-18T07:05:29.124Z,5
2018-10-18T07:06:23.351Z,5
2018-10-18T07:07:23.302Z,5
2018-10-18T07:08:16.539Z,5
2018-10-18T07:09:09.229Z,5
2018-10-18T07:10:01.502Z,5
2018-10-18T07:10:55.928Z,5
2018-10-18T07:11:49.430Z,5
2018-10-18T07:12:47.878Z,5
2018-10-18T07:13:41.179Z,5
2018-10-18T07:14:34.775Z,5
2018-10-18T07:38:31.227Z,5
2018-10-18T07:39:24.296Z,5
2018-10-18T07:40:17.751Z,5
2018-10-18T07:41:11.774Z,5
2018-10-18T07:42:05.273Z,5
2018-10-18T07:42:58.763Z,10
2018-10-18T07:43:51.104Z,10
2018-10-18T07:44:43.747Z,10
2018-10-18T07:45:36.526Z,10
2018-10-18T07:46:29.321Z,15
2018-10-18T07:47:22.851Z,15
2018-10-18T07:48:19.524Z,20
2018-10-18T07:49:16.476Z,20
2018-10-18T07:50:10.785Z,25
2018-10-18T07:52:32.627Z,30
2018-10-18T07:53:13.121Z,35
2018-10-18T07:53:54.147Z,35
2018-10-18T07:54:35.570Z,40
2018-10-18T07:55:16.276Z,40
2018-10-18T07:55:56.750Z,40
2018-10-18T07:56:37.206Z,40
2018-10-18T07:57:17.654Z,40
2018-10-18T07:57:58.060Z,40
2018-10-18T07:58:57.329Z,45
2018-10-18T07:59:37.711Z,50
2018-10-18T08:00:18.474Z,50
2018-10-18T08:00:58.872Z,55
2018-10-18T08:01:39.246Z,55
2018-10-18T08:02:22.815Z,55
2018-10-18T08:03:03.235Z,55
2018-10-18T08:03:43.609Z,55
2018-10-18T08:04:24.769Z,55
2018-10-18T08:05:05.193Z,50
2018-10-18T08:11:03.149Z,40
2018-10-18T08:11:59.789Z,35
2018-10-18T08:12:56.205Z,35
2018-10-18T08:13:54.201Z,30
2018-10-18T08:14:48.637Z,30
2018-10-18T08:15:41.584Z,30
2018-10-18T08:16:36.870Z,30
2018-10-18T08:17:30.339Z,30
2018-10-18T08:18:23.399Z,35
2018-10-18T08:19:18.132Z,35
2018-10-18T08:20:14.902Z,35
2018-10-18T08:21:10.546Z,35
2018-10-18T08:22:02.788Z,30
2018-10-18T08:22:59.321Z,30
2018-10-18T08:23:51.271Z,25
2018-10-18T08:24:43.615Z,25
2018-10-18T08:25:37.831Z,25
2018-10-18T08:26:41.998Z,25
2018-10-18T08:27:47.830Z,25
2018-10-18T08:30:30.559Z,20
2018-10-18T08:31:09.091Z,20
2018-10-18T08:31:49.519Z,20
2018-10-18T08:32:29.918Z,20
2018-10-18T08:33:10.341Z,20
2018-10-18T08:35:58.497Z,20
2018-10-18T08:36:52.132Z,20
2018-10-18T08:37:45.313Z,15
2018-10-18T08:38:37.675Z,15
2018-10-18T08:39:32.554Z,15
2018-10-18T08:40:39.822Z,15
2018-10-18T08:41:31.641Z,15
2018-10-18T08:42:25.490Z,15
2018-10-18T08:43:18.406Z,15
2018-10-18T08:44:10.708Z,15
2018-10-18T08:45:10.056Z,15
2018-10-18T08:46:01.885Z,15
2018-10-18T08:46:57.161Z,15
2018-10-18T08:47:52.649Z,15
2018-10-18T08:48:46.740Z,15
2018-10-18T08:49:54.728Z,15
2018-10-18T08:50:49.642Z,15
2018-10-18T08:51:45.635Z,15
2018-10-18T08:52:38.098Z,15
2018-10-18T08:53:35.665Z,15
2018-10-18T08:54:29.855Z,15
2018-10-18T08:55:24.270Z,15
2018-10-18T08:56:21.091Z,15
2018-10-18T08:57:15.336Z,15
2018-10-18T08:58:09.892Z,15
2018-10-18T08:59:03.754Z,15
2018-10-18T09:02:20.029Z,15
2018-10-18T09:05:33.856Z,10
2018-10-18T09:06:26.596Z,15
2018-10-18T09:07:23.711Z,15
2018-10-18T09:08:15.640Z,15
2018-10-18T09:09:10.587Z,15
2018-10-18T09:10:10.798Z,15
2018-10-18T09:11:03.765Z,15
2018-10-18T09:11:56.713Z,15
2018-10-18T09:12:53.576Z,15
2018-10-18T09:13:52.713Z,15
2018-10-18T09:15:08.317Z,20
2018-10-18T09:16:26.065Z,20
2018-10-18T09:19:05.290Z,20
2018-10-18T09:20:09.349Z,20
2018-10-18T09:28:07.357Z,20
2018-10-18T09:28:48.839Z,20
2018-10-18T09:29:30.333Z,20
2018-10-18T09:30:12.371Z,20
2018-10-18T09:30:53.417Z,25
2018-10-18T09:31:33.462Z,25
2018-10-18T09:32:14.354Z,25
2018-10-18T09:32:55.207Z,25
2018-10-18T09:33:36.848Z,25
2018-10-18T09:34:17.299Z,25
2018-10-18T09:34:57.217Z,20
2018-10-18T09:35:37.772Z,20
2018-10-18T09:36:18.300Z,20
2018-10-18T09:36:58.857Z,25
2018-10-18T09:37:39.274Z,25
2018-10-18T09:38:20.880Z,25
2018-10-18T09:39:00.955Z,20
2018-10-18T09:39:41.707Z,20
2018-10-18T09:40:22.470Z,20
2018-10-18T09:41:02.890Z,20
2018-10-18T09:41:43.863Z,20
2018-10-18T09:42:23.858Z,20
2018-10-18T09:43:04.321Z,25
2018-10-18T09:43:45.415Z,25
2018-10-18T09:44:28.098Z,25
2018-10-18T09:45:10.317Z,25
2018-10-18T09:45:49.667Z,25
2018-10-18T09:46:31.379Z,20
2018-10-18T09:47:11.817Z,20
2018-10-18T09:47:51.955Z,15
2018-10-18T09:48:33.489Z,20
2018-10-18T09:49:13.682Z,25
2018-10-18T09:49:54.439Z,25
2018-10-18T09:50:35.822Z,20
2018-10-18T09:51:15.923Z,20
2018-10-18T09:51:56.703Z,20
2018-10-18T09:52:38.473Z,15
2018-10-18T09:53:18.987Z,20
2018-10-18T09:54:01.882Z,20
2018-10-18T09:54:42.096Z,20
2018-10-18T09:55:23.577Z,20
2018-10-18T09:56:03.317Z,20
2018-10-18T09:56:44.333Z,20
2018-10-18T09:57:24.368Z,20
2018-10-18T09:58:05.043Z,20
2018-10-18T09:58:46.148Z,20
2018-10-18T09:59:26.707Z,15
2018-10-18T10:00:08.867Z,15
2018-10-18T10:00:48.345Z,15
2018-10-18T10:01:30.876Z,15
2018-10-18T10:02:10.667Z,15
2018-10-18T10:02:51.951Z,10
2018-10-18T10:03:33.330Z,10
2018-10-18T10:04:13.442Z,10
2018-10-18T10:04:53.820Z,10
2018-10-18T10:05:34.541Z,15
2018-10-18T10:06:15.419Z,15
2018-10-18T10:06:56.893Z,20
2018-10-18T10:07:38.837Z,20
2018-10-18T10:08:20.829Z,20
2018-10-18T10:09:01.931Z,15
2018-10-18T10:09:43.447Z,15
2018-10-18T10:10:24.159Z,15
2018-10-18T10:11:05.892Z,15
2018-10-18T10:11:47.423Z,15
2018-10-18T10:12:27.530Z,15
2018-10-18T10:13:10.400Z,15
2018-10-18T10:13:51.895Z,15
2018-10-18T10:14:32.307Z,20
2018-10-18T10:15:14.388Z,20
2018-10-18T10:15:54.160Z,20
2018-10-18T10:16:35.842Z,25
2018-10-18T10:17:15.630Z,25
2018-10-18T10:17:56.216Z,25
2018-10-18T10:18:37.399Z,25
2018-10-18T10:19:18.329Z,25
2018-10-18T10:19:59.446Z,25
2018-10-18T10:20:40.050Z,25
2018-10-18T10:21:22.463Z,25
2018-10-18T10:22:03.213Z,25
2018-10-18T10:22:44.353Z,25
2018-10-18T10:23:25.557Z,25
2018-10-18T10:24:06.506Z,25
2018-10-18T10:24:47.010Z,25
2018-10-18T10:25:28.469Z,25
2018-10-18T10:26:11.052Z,25
2018-10-18T10:26:51.508Z,25
2018-10-18T10:27:32.154Z,25
2018-10-18T10:28:12.778Z,25
2018-10-18T10:28:54.837Z,25
2018-10-18T11:07:32.121Z,25
2018-10-18T11:08:14.849Z,25
2018-10-18T11:08:55.052Z,25
2018-10-18T11:09:35.496Z,25
2018-10-18T11:11:00.682Z,30
2018-10-18T11:11:41.464Z,30
2018-10-18T11:12:24.241Z,30
2018-10-18T11:13:06.354Z,30
2018-10-18T11:13:48.060Z,30
2018-10-18T11:14:28.492Z,30
2018-10-18T11:15:12.393Z,25
2018-10-18T11:15:53.501Z,25
2018-10-18T11:16:34.665Z,25
2018-10-18T11:17:15.686Z,25
2018-10-18T11:17:57.317Z,25
2018-10-18T11:18:38.174Z,30
2018-10-18T11:19:18.819Z,30
2018-10-18T11:19:59.898Z,30
2018-10-18T11:20:40.977Z,30
2018-10-18T11:21:23.753Z,30
2018-10-18T11:22:04.660Z,30
2018-10-18T11:22:45.774Z,30
2018-10-18T11:23:27.746Z,30
2018-10-18T11:24:08.204Z,30
2018-10-18T11:24:48.935Z,30
2018-10-18T11:25:30.492Z,30
2018-10-18T11:26:11.762Z,30
2018-10-18T11:26:52.463Z,30
2018-10-18T11:27:33.684Z,35
2018-10-18T11:28:14.582Z,35
2018-10-18T11:28:55.538Z,35
2018-10-18T11:29:36.945Z,35
2018-10-18T11:30:17.924Z,35
2018-10-18T11:30:59.273Z,35
2018-10-18T11:31:40.020Z,35
2018-10-18T11:32:20.714Z,35
2018-10-18T11:33:01.233Z,35
2018-10-18T11:33:43.725Z,30
2018-10-18T11:34:23.416Z,30
2018-10-18T11:35:03.686Z,30
2018-10-18T11:35:44.477Z,25
2018-10-18T11:36:25.326Z,25
2018-10-18T11:37:07.860Z,25
2018-10-18T11:37:48.924Z,25
2018-10-18T11:38:30.636Z,25
2018-10-18T11:39:10.714Z,25
2018-10-18T11:39:51.306Z,25
2018-10-18T11:40:32.168Z,25
2018-10-18T11:41:13.283Z,25
2018-10-18T11:41:53.410Z,25
2018-10-18T11:42:34.830Z,25
2018-10-18T11:43:15.336Z,30
2018-10-18T11:43:55.932Z,30
2018-10-18T11:44:39.187Z,30
2018-10-18T11:45:19.663Z,35
2018-10-18T11:45:59.467Z,40
2018-10-18T11:46:39.776Z,45
2018-10-18T11:47:20.449Z,45
2018-10-18T11:48:00.893Z,45
2018-10-18T11:48:41.519Z,45
2018-10-18T11:49:21.835Z,45
2018-10-18T11:50:03.239Z,45
2018-10-18T11:50:45.419Z,45
2018-10-18T11:51:25.943Z,45
2018-10-18T11:52:06.655Z,45
2018-10-18T11:52:47.076Z,45
2018-10-18T11:53:28.616Z,45
2018-10-18T11:54:08.852Z,45
2018-10-18T11:54:49.580Z,45
2018-10-18T11:57:35.131Z,45
2018-10-18T11:58:28.584Z,45
2018-10-18T11:59:22.511Z,45
2018-10-18T12:00:16.311Z,45
2018-10-18T12:01:19.568Z,50
2018-10-18T12:02:13.920Z,50
2018-10-18T12:03:09.768Z,50
2018-10-18T12:03:53.310Z,55
2018-10-18T12:04:34.240Z,55
2018-10-18T12:05:15.874Z,50
2018-10-18T12:05:56.551Z,55
2018-10-18T12:06:37.440Z,55
2018-10-18T12:07:17.993Z,55
2018-10-18T12:08:01.483Z,55
2018-10-18T12:08:41.556Z,50
2018-10-18T12:09:23.606Z,50
2018-10-18T12:10:05.101Z,50
2018-10-18T12:10:46.115Z,50
2018-10-18T12:11:26.829Z,50
2018-10-18T12:12:07.213Z,45
2018-10-18T12:12:47.713Z,45
2018-10-18T12:13:28.376Z,45
2018-10-18T12:14:09.086Z,45
2018-10-18T12:14:49.780Z,40
2018-10-18T12:15:30.386Z,45
2018-10-18T12:16:11.097Z,45
2018-10-18T12:16:51.299Z,45
2018-10-18T12:17:31.929Z,45
2018-10-18T12:18:12.543Z,45
2018-10-18T12:18:53.078Z,45
2018-10-18T12:19:33.616Z,45
2018-10-18T12:20:15.161Z,50
2018-10-18T12:21:02.271Z,50
2018-10-18T12:21:40.535Z,55
2018-10-18T12:22:21.073Z,60
2018-10-18T12:23:01.612Z,60
2018-10-18T12:23:41.998Z,60
2018-10-18T12:24:22.613Z,60
2018-10-18T12:25:04.534Z,55
2018-10-18T12:25:44.336Z,55
2018-10-18T12:26:25.514Z,45
2018-10-18T12:27:08.689Z,45
2018-10-18T12:27:48.633Z,40
2018-10-18T12:28:29.310Z,45
2018-10-18T12:29:09.744Z,45
2018-10-18T12:29:50.380Z,40
2018-10-18T12:30:34.234Z,35
2018-10-18T12:31:14.608Z,35
2018-10-18T12:31:55.140Z,35
2018-10-18T12:32:35.580Z,35
2018-10-18T12:33:16.226Z,35
2018-10-18T12:33:56.494Z,35
2018-10-18T12:34:37.045Z,35
2018-10-18T12:35:17.652Z,35
2018-10-18T12:35:58.055Z,35
2018-10-18T12:36:38.932Z,35
2018-10-18T12:37:19.360Z,35
2018-10-18T12:38:00.020Z,35
2018-10-18T12:38:40.441Z,35
2018-10-18T12:39:22.049Z,35
2018-10-18T12:40:02.273Z,35
2018-10-18T12:40:43.121Z,40
2018-10-18T12:41:23.795Z,40
2018-10-18T12:42:04.945Z,40
2018-10-18T12:42:46.734Z,40
2018-10-18T12:43:28.010Z,40
2018-10-18T12:44:08.597Z,40
2018-10-18T12:44:49.268Z,40
2018-10-18T12:45:30.238Z,40
2018-10-18T12:46:10.512Z,40
2018-10-18T12:46:51.340Z,40
2018-10-18T12:48:00.440Z,45
2018-10-18T12:56:06.106Z,45
2018-10-18T12:57:09.489Z,45
2018-10-18T12:58:04.207Z,45
2018-10-18T12:58:58.016Z,45
2018-10-18T12:59:52.467Z,45
2018-10-18T13:00:39.543Z,45
2018-10-18T13:01:21.530Z,45
2018-10-18T13:02:02.624Z,45
2018-10-18T13:02:44.046Z,45
2018-10-18T13:03:25.349Z,45
2018-10-18T13:04:06.218Z,35
2018-10-18T13:04:49.512Z,35
2018-10-18T13:05:35.492Z,35
2018-10-18T13:06:16.257Z,40
2018-10-18T13:06:58.243Z,45
2018-10-18T13:07:39.596Z,45
2018-10-18T13:08:19.746Z,45
2018-10-18T13:09:00.798Z,45
2018-10-18T13:09:41.417Z,45
2018-10-18T13:10:21.920Z,45
2018-10-18T13:11:05.817Z,45
2018-10-18T13:11:50.037Z,45
2018-10-18T13:14:26.656Z,45
2018-10-18T13:15:25.156Z,45
2018-10-18T13:18:11.289Z,45
2018-10-18T13:18:53.134Z,45
2018-10-18T13:19:33.628Z,45
2018-10-18T13:20:14.111Z,45
2018-10-18T13:20:54.552Z,45
2018-10-18T13:21:35.115Z,40
2018-10-18T13:22:15.790Z,40
2018-10-18T13:22:58.415Z,40
2018-10-18T13:23:38.521Z,40
2018-10-18T13:24:19.364Z,40
2018-10-18T13:25:01.553Z,35
2018-10-18T13:25:42.864Z,35
2018-10-18T13:26:24.059Z,40
2018-10-18T13:27:06.395Z,40
2018-10-18T13:27:47.223Z,40
2018-10-18T13:28:27.773Z,40
2018-10-18T13:29:08.128Z,40
2018-10-18T13:29:48.605Z,35
2018-10-18T13:30:29.103Z,35
2018-10-18T13:31:09.542Z,35
2018-10-18T13:31:50.211Z,35
2018-10-18T13:32:30.663Z,35
2018-10-18T13:33:11.111Z,35
2018-10-18T13:33:51.649Z,30
2018-10-18T13:34:32.036Z,30
2018-10-18T13:35:12.525Z,30
2018-10-18T13:35:52.970Z,30
2018-10-18T13:36:33.400Z,30
2018-10-18T13:37:13.912Z,30
2018-10-18T13:37:54.469Z,30
2018-10-18T13:38:35.106Z,30
2018-10-18T13:39:17.040Z,30
2018-10-18T13:39:57.335Z,30
2018-10-18T13:40:38.548Z,30
2018-10-18T13:41:18.827Z,30
2018-10-18T13:41:59.281Z,35
2018-10-18T13:42:39.793Z,30
2018-10-18T13:43:20.117Z,35
2018-10-18T13:44:01.427Z,35
2018-10-18T13:44:41.776Z,35
2018-10-18T13:45:22.281Z,40
2018-10-18T13:46:03.630Z,35
2018-10-18T13:46:44.034Z,35
2018-10-18T13:47:26.050Z,40
2018-10-18T13:48:06.524Z,40
2018-10-18T13:48:46.914Z,35
2018-10-18T13:49:27.425Z,35
2018-10-18T13:50:07.946Z,35
2018-10-18T13:50:48.400Z,35
2018-10-18T13:51:28.818Z,35
2018-10-18T13:52:09.393Z,35
2018-10-18T13:52:49.961Z,35
2018-10-18T13:53:30.512Z,35
2018-10-18T13:54:11.410Z,30
2018-10-18T13:54:51.461Z,30
2018-10-18T13:55:31.901Z,30
2018-10-18T13:56:13.167Z,30
2018-10-18T13:56:53.441Z,30
2018-10-18T13:57:33.863Z,30
2018-10-18T13:58:14.523Z,30
2018-10-18T13:58:54.945Z,30
2018-10-18T13:59:35.379Z,30
2018-10-18T14:00:15.946Z,25
2018-10-18T14:00:57.331Z,25
2018-10-18T14:01:37.855Z,25
2018-10-18T14:02:18.347Z,25
2018-10-18T14:02:58.724Z,25
2018-10-18T14:03:39.942Z,25
2018-10-18T14:04:19.906Z,25
2018-10-18T14:05:00.699Z,25
2018-10-18T14:05:41.271Z,25
2018-10-18T14:06:21.566Z,25
2018-10-18T14:07:03.490Z,25
2018-10-18T14:07:44.117Z,25
2018-10-18T14:08:24.780Z,25
2018-10-18T14:09:05.234Z,25
2018-10-18T14:09:46.498Z,25
2018-10-18T14:10:26.484Z,25
2018-10-18T14:11:07.358Z,25
2018-10-18T14:11:47.776Z,30
2018-10-18T14:12:28.297Z,30
2018-10-18T14:13:08.743Z,25
2018-10-18T14:13:49.464Z,25
2018-10-18T14:14:29.891Z,30
2018-10-18T14:15:12.008Z,30
2018-10-18T14:15:51.863Z,35
2018-10-18T14:16:32.433Z,35
2018-10-18T14:17:13.052Z,35
2018-10-18T14:17:54.073Z,35
2018-10-18T14:18:36.100Z,35
2018-10-18T14:19:15.701Z,35
2018-10-18T14:19:57.006Z,35
2018-10-18T14:20:37.227Z,35
2018-10-18T14:21:17.670Z,35
2018-10-18T14:21:58.091Z,35
2018-10-18T14:22:38.509Z,30
2018-10-18T14:23:19.220Z,35
2018-10-18T14:24:00.013Z,35
2018-10-18T14:24:41.118Z,35
2018-10-18T14:25:21.350Z,30
2018-10-18T14:26:01.835Z,35
2018-10-18T14:26:42.311Z,35
2018-10-18T14:27:23.586Z,35
2018-10-18T14:28:05.461Z,35
2018-10-18T14:28:45.449Z,35
2018-10-18T14:29:25.924Z,35
2018-10-18T14:30:06.520Z,30
2018-10-18T14:30:47.424Z,30
2018-10-18T14:31:28.012Z,30
2018-10-18T14:32:08.519Z,30
2018-10-18T14:32:49.074Z,30
2018-10-18T14:33:29.649Z,30
2018-10-18T14:34:10.071Z,30
2018-10-18T14:34:50.804Z,30
2018-10-18T14:35:33.002Z,30
2018-10-18T14:36:12.712Z,30
2018-10-18T14:36:53.280Z,30
2018-10-18T14:37:34.831Z,30
2018-10-18T14:38:15.337Z,30
2018-10-18T14:38:56.094Z,30
2018-10-18T14:39:37.145Z,30
2018-10-18T14:40:18.460Z,30
2018-10-18T14:40:58.409Z,30
2018-10-18T14:41:40.008Z,30
2018-10-18T14:42:21.001Z,35
2018-10-18T14:43:04.019Z,35
2018-10-18T14:43:47.302Z,35
2018-10-18T14:44:28.166Z,35
2018-10-18T14:45:07.655Z,35
2018-10-18T14:45:47.988Z,35
2018-10-18T14:46:28.790Z,35
2018-10-18T14:47:13.674Z,35
2018-10-18T14:47:55.223Z,35
2018-10-18T14:48:35.319Z,35
2018-10-18T14:49:17.514Z,35
2018-10-18T14:49:56.854Z,35
2018-10-18T14:50:37.535Z,35
2018-10-18T14:51:18.046Z,35
2018-10-18T14:51:59.520Z,35
2018-10-18T14:52:39.264Z,35
2018-10-18T14:53:19.850Z,35
2018-10-18T14:54:02.618Z,35
2018-10-18T14:54:42.503Z,35
2018-10-18T14:55:22.731Z,35
2018-10-18T14:56:04.582Z,35
2018-10-18T14:56:44.465Z,35
2018-10-18T14:57:26.605Z,35
2018-10-18T14:58:06.854Z,35
2018-10-18T14:58:47.321Z,35
2018-10-18T14:59:28.900Z,35
2018-10-18T15:00:13.046Z,35
2018-10-18T15:00:53.564Z,35
2018-10-18T15:01:33.733Z,35
2018-10-18T15:02:14.998Z,35
2018-10-18T15:02:55.992Z,40
2018-10-18T15:03:37.552Z,25
2018-10-18T15:04:17.686Z,20
2018-10-18T15:04:59.070Z,20
2018-10-18T15:05:39.473Z,15
2018-10-18T15:06:20.155Z,15
2018-10-18T15:07:00.941Z,15
2018-10-18T15:07:42.792Z,15
2018-10-18T15:08:23.287Z,15
2018-10-18T15:09:03.789Z,15
2018-10-18T15:09:44.224Z,15
2018-10-18T15:10:24.993Z,15
2018-10-18T15:11:05.627Z,15
2018-10-18T15:11:46.083Z,15
2018-10-18T15:12:26.624Z,15
2018-10-18T15:13:09.033Z,15
2018-10-18T15:13:49.539Z,15
2018-10-18T15:14:29.725Z,15
2018-10-18T15:15:10.028Z,15
2018-10-18T15:15:50.473Z,15
2018-10-18T15:16:31.253Z,15
2018-10-18T15:17:12.727Z,15
2018-10-18T15:17:53.106Z,15
2018-10-18T15:18:33.883Z,15
2018-10-18T15:19:14.266Z,15
2018-10-18T15:19:54.846Z,15
2018-10-18T15:20:35.226Z,15
2018-10-18T15:21:15.760Z,15
2018-10-18T15:21:56.109Z,15
2018-10-18T15:24:14.518Z,35
2018-10-18T15:24:55.451Z,60
2018-10-18T15:25:35.799Z,60
2018-10-18T15:26:16.165Z,60
2018-10-18T15:26:56.768Z,25
2018-10-18T15:27:37.113Z,15